Georgetown, TX (78626)

5:55 PM CST on January 31, 2015 (GMT -0600)
Golden Oaks | Change Station
CLOSE
Current Station
Personal Weather Station
Location: Georgetown, TX
Elevation: 748 ft
Nearby Weather Stations

Elev 748 ft 30.67 °N, 97.68 °W | Updated 56 seconds ago

Rain
Rain
54.7 °F
Feels Like 54.7 °F
N
0.0
Wind Variable Wind from ENE
Gusts 0.0 mph

Today
High -- | Low -- °F
--% Chance of Precip.
Yesterday
High -- | Low -- °F
Precip. -- in
7:22 AM 6:05 PM
Waxing Gibbous, 92% visible
Pressure 29.95 in
Visibility -9999.0 miles
Clouds Mostly Cloudy 400 ft
Overcast 1100 ft
Dew Point 54 °F
Humidity 98%
Rainfall 0.27 in
Snow Depth Not available.
UV 0 out of 12
Pollen 6.40 out of 12
Air Quality Not available.
Flu Activity Not available.
METAR KGTU 312350Z 00000KT 2 SM -RA BR BKN004 OVC011 13/12 A2995

More Conditions Fewer Conditions

Pressure 29.95 in
Visibility -9999.0 miles
Clouds Mostly Cloudy 400 ft
Overcast 1100 ft
Dew Point 54 °F
Humidity 98%
Rainfall 0.27 in
Snow Depth Not available.
UV 0 out of 12
Pollen 6.40 out of 12
Air Quality Not available.
Flu Activity Not available.
METAR KGTU 312350Z 00000KT 2 SM -RA BR BKN004 OVC011 13/12 A2995

More Conditions Fewer Conditions

10-Day Weather Forecast

Almanac

Astronomy

Jan. 31, 2015 Rise Set
Actual Time
Civil Twilight
Nautical Twilight
Astronomical Twilight
Moon
Length of Visible Light
Length of Day
Tomorrow will be .
, % of the Moon is Illuminated

Today's Extremes

State Highs State Lows

Community

WunderPhotos

Upload Photos

1,792,249 photos uploaded!

WunderBlogs® & News

Nearby

Air Quality

  Air Quality AQ Index Pollutant
Not available.

Snow Depth

Station Depth Elevation

Earthquake Activity

City Distance Mag. Time & Date
Minimum magnitude displayed is 2.5.

Coastal Water Temperatures

Place Temperature

Nearby Weather Stations